Terminal Aerodrome Forecast
Issued by NWS

Home | Current Version | Previous Version | Text Only | Print | Product List | Glossary On
Versions: 1 2 3 4 5 6 7 8 9 10 11 12 13 14
910
FTUS42 KGSP 270539
TAFAND
TAF
KAND 270539Z 2706/2806 17006KT P6SM BKN050
      TEMPO 2709/2713 5SM BR BKN010
     FM271300 21005KT P6SM BKN025
     FM271600 22008KT P6SM BKN035 PROB30 2718/2724 4SM -TSRA
      OVC020CB
     FM280000 19003KT P6SM VCSH BKN040=

USA.gov is the U.S. government's official web portal to all federal, state and local government web resources and services.